Gatchina, Russia
Current Conditions -  °F | °C
As of 4:30 AM on Sunday 26 Oct 2014 (Local Time) from ULLI Reporting Station
Clear Clear  
Wind Chill: 26°   Ceiling: Unl
Heat Index: 32°   Visibility: 6mi
Dew Point: 18°   Wind: 7mph
Humidity: 55%   Direction: 190°S
Pressure: 30.27"   Gusts: NA
Location:  59.57°N, 30.13°E
Report Text: ULLI 260130Z 19003MPS CAVOK M00/M08 Q1025 28////// 78190060NOSIG
Loading
Personal Weather Stations






























Interactive Weather Map
Tropical Storm Tracking
New forecast layout! Learn more

10-Day Weather Forecast

Advertisements
Track Severe Weather on mobile